createdAt,value
2024-04-30T00:01:23.111Z,17.11
2024-04-30T00:03:50.212Z,17.11
2024-04-30T00:06:17.353Z,17.06
2024-04-30T00:08:44.425Z,16.89
2024-04-30T00:11:14.176Z,16.85
2024-04-30T00:13:41.290Z,16.70
2024-04-30T00:16:08.479Z,16.86
2024-04-30T00:18:35.579Z,16.82
2024-04-30T00:21:02.740Z,16.65
2024-04-30T00:23:29.842Z,16.44
2024-04-30T00:25:56.941Z,16.31
2024-04-30T00:28:26.767Z,16.58
2024-04-30T00:30:53.927Z,16.42
2024-04-30T00:33:21.009Z,16.12
2024-04-30T00:35:48.077Z,16.27
2024-04-30T00:38:15.168Z,16.29
2024-04-30T00:40:42.324Z,16.14
2024-04-30T00:43:09.557Z,15.88
2024-04-30T00:45:39.285Z,16.20
2024-04-30T00:48:07.209Z,16.29
2024-04-30T00:50:34.687Z,16.23
2024-04-30T00:53:03.897Z,16.18
2024-04-30T00:55:31.112Z,16.25
2024-04-30T00:57:58.313Z,16.28
2024-04-30T01:00:25.509Z,16.39
2024-04-30T01:02:55.263Z,16.30
2024-04-30T01:05:21.940Z,15.64
2024-04-30T01:07:48.597Z,15.74
2024-04-30T01:10:15.366Z,16.13
2024-04-30T01:12:42.117Z,15.97
2024-04-30T01:15:08.800Z,16.08
2024-04-30T01:17:35.527Z,16.12
2024-04-30T01:20:05.637Z,16.16
2024-04-30T01:22:32.389Z,16.06
2024-04-30T01:25:01.716Z,16.17
2024-04-30T01:27:28.422Z,16.25
2024-04-30T01:29:55.131Z,16.20
2024-04-30T01:32:21.847Z,16.10
2024-04-30T01:34:48.557Z,15.93
2024-04-30T01:37:15.349Z,16.03
2024-04-30T01:39:42.060Z,16.04
2024-04-30T01:42:11.384Z,15.98
2024-04-30T01:44:38.049Z,16.00
2024-04-30T01:47:04.889Z,16.08
2024-04-30T01:49:31.616Z,16.10
2024-04-30T01:51:58.389Z,15.97
2024-04-30T01:54:25.133Z,15.90
2024-04-30T01:56:51.799Z,15.85
2024-04-30T01:59:21.145Z,15.88
2024-04-30T02:01:47.892Z,15.81
2024-04-30T02:04:15.067Z,15.87
2024-04-30T02:06:42.834Z,15.82
2024-04-30T02:09:09.902Z,15.95
2024-04-30T02:11:36.982Z,15.88
2024-04-30T02:14:04.118Z,15.95
2024-04-30T02:16:33.842Z,15.98
2024-04-30T02:19:01.122Z,15.79
2024-04-30T02:21:28.286Z,15.66
2024-04-30T02:23:55.383Z,15.63
2024-04-30T02:26:22.519Z,15.66
2024-04-30T02:28:49.591Z,15.64
2024-04-30T02:31:18.752Z,15.78
2024-04-30T02:33:48.459Z,15.88
2024-04-30T02:36:15.538Z,15.67
2024-04-30T02:38:42.570Z,15.58
2024-04-30T02:41:09.620Z,15.66
2024-04-30T02:43:36.728Z,15.65
2024-04-30T02:46:04.115Z,15.35
2024-04-30T02:48:31.251Z,15.32
2024-04-30T02:51:01.724Z,15.39
2024-04-30T02:53:29.025Z,15.60
2024-04-30T02:55:56.292Z,15.67
2024-04-30T02:58:23.583Z,15.79
2024-04-30T03:00:50.309Z,15.48
2024-04-30T03:03:17.067Z,15.53
2024-04-30T03:05:43.772Z,15.58
2024-04-30T03:08:13.117Z,15.71
2024-04-30T03:10:39.898Z,15.52
2024-04-30T03:13:06.624Z,15.52
2024-04-30T03:15:33.403Z,15.45
2024-04-30T03:18:00.178Z,15.51
2024-04-30T03:20:26.964Z,15.34
2024-04-30T03:22:53.710Z,15.43
2024-04-30T03:25:23.128Z,15.27
2024-04-30T03:27:49.875Z,15.41
2024-04-30T03:30:16.530Z,15.37
2024-04-30T03:32:43.351Z,15.32
2024-04-30T03:35:10.287Z,15.15
2024-04-30T03:37:37.066Z,15.37
2024-04-30T03:40:04.593Z,15.40
2024-04-30T03:42:33.923Z,15.38
2024-04-30T03:45:00.672Z,15.45
2024-04-30T03:47:27.431Z,15.32
2024-04-30T03:49:54.126Z,15.36
2024-04-30T03:52:20.841Z,15.30
2024-04-30T03:54:47.777Z,15.26
2024-04-30T03:57:14.458Z,15.34
2024-04-30T03:59:44.232Z,15.25
2024-04-30T04:02:11.327Z,14.69
2024-04-30T04:04:38.517Z,15.06
2024-04-30T04:07:05.713Z,15.18
2024-04-30T04:09:32.809Z,15.13
2024-04-30T04:11:59.859Z,15.13
2024-04-30T04:14:26.911Z,15.21
2024-04-30T04:16:56.584Z,15.25
2024-04-30T04:19:23.767Z,15.16
2024-04-30T04:21:50.852Z,15.10
2024-04-30T04:24:17.937Z,15.12
2024-04-30T04:26:45.015Z,15.17
2024-04-30T04:29:12.063Z,15.14
2024-04-30T04:31:39.259Z,15.01
2024-04-30T04:34:09.179Z,15.07
2024-04-30T04:36:36.270Z,15.22
2024-04-30T04:39:03.852Z,15.13
2024-04-30T04:41:30.980Z,15.08
2024-04-30T04:43:58.075Z,15.17
2024-04-30T04:46:25.212Z,15.31
2024-04-30T04:48:52.375Z,15.39
2024-04-30T04:51:22.168Z,15.36
2024-04-30T04:53:49.269Z,15.16
2024-04-30T04:56:16.357Z,15.27
2024-04-30T04:58:43.557Z,15.32
2024-04-30T05:01:12.650Z,15.23
2024-04-30T05:03:40.242Z,15.23
2024-04-30T05:06:07.419Z,15.30
2024-04-30T05:08:37.244Z,15.45
2024-04-30T05:11:11.939Z,15.29
2024-04-30T05:13:39.090Z,15.31
2024-04-30T05:16:07.377Z,15.41
2024-04-30T05:18:34.510Z,15.53
2024-04-30T05:21:01.644Z,15.57
2024-04-30T05:23:28.733Z,15.47
2024-04-30T05:25:58.406Z,15.08
2024-04-30T05:28:25.505Z,15.37
2024-04-30T05:30:52.668Z,14.90
2024-04-30T05:33:19.794Z,14.82
2024-04-30T05:35:46.884Z,14.73
2024-04-30T05:38:14.322Z,15.25
2024-04-30T05:40:41.608Z,15.50
2024-04-30T05:43:11.652Z,15.63
2024-04-30T05:45:38.895Z,15.76
2024-04-30T05:48:06.938Z,15.88
2024-04-30T05:50:33.674Z,16.09
2024-04-30T05:53:00.431Z,16.00
2024-04-30T05:55:27.186Z,15.90
2024-04-30T05:57:54.241Z,16.25
2024-04-30T06:00:23.760Z,16.40
2024-04-30T06:02:50.579Z,16.45
2024-04-30T06:05:17.508Z,16.61
2024-04-30T06:07:44.421Z,16.72
2024-04-30T06:10:11.199Z,16.81
2024-04-30T06:12:37.896Z,16.88
2024-04-30T06:15:05.449Z,17.00
2024-04-30T06:17:34.830Z,17.04
2024-04-30T06:20:01.684Z,16.89
2024-04-30T06:22:28.728Z,16.75
2024-04-30T06:24:55.503Z,16.92
2024-04-30T06:27:22.284Z,17.06
2024-04-30T06:29:49.102Z,17.28
2024-04-30T06:32:15.858Z,17.27
2024-04-30T06:34:45.241Z,17.45
2024-04-30T06:37:12.141Z,17.32
2024-04-30T06:39:38.937Z,17.47
2024-04-30T06:42:06.066Z,17.36
2024-04-30T06:44:32.784Z,17.22
2024-04-30T06:46:59.580Z,17.36
2024-04-30T06:49:26.855Z,17.53
2024-04-30T06:51:56.637Z,17.64
2024-04-30T06:54:23.733Z,17.73
2024-04-30T06:56:50.820Z,17.86
2024-04-30T06:59:17.944Z,17.90
2024-04-30T07:01:45.502Z,17.78
2024-04-30T07:04:12.644Z,17.89
2024-04-30T07:06:39.834Z,17.75
2024-04-30T07:09:09.552Z,17.77
2024-04-30T07:11:36.764Z,17.90
2024-04-30T07:14:03.846Z,17.98
2024-04-30T07:16:31.048Z,17.65
2024-04-30T07:18:58.242Z,17.66
2024-04-30T07:21:25.336Z,17.93
2024-04-30T07:23:52.444Z,18.02
2024-04-30T07:26:22.375Z,17.89
2024-04-30T07:28:49.504Z,18.22
2024-04-30T07:31:16.643Z,18.38
2024-04-30T07:33:43.765Z,18.45
2024-04-30T07:36:10.871Z,18.66
2024-04-30T07:38:37.879Z,18.84
2024-04-30T07:41:05.104Z,18.79
2024-04-30T07:43:34.901Z,18.68
2024-04-30T07:46:01.973Z,18.70
2024-04-30T07:48:29.145Z,18.33
2024-04-30T07:50:56.425Z,18.73
2024-04-30T07:53:23.562Z,18.74
2024-04-30T07:55:50.659Z,18.94
2024-04-30T07:58:17.729Z,18.86
2024-04-30T08:00:47.583Z,18.75
2024-04-30T08:03:14.835Z,18.43
2024-04-30T08:05:43.302Z,18.39
2024-04-30T08:08:11.804Z,18.58
2024-04-30T08:10:39.139Z,18.60
2024-04-30T08:13:08.187Z,18.42
2024-04-30T08:15:35.284Z,18.52
2024-04-30T08:18:05.491Z,18.63
2024-04-30T08:20:32.655Z,18.75
2024-04-30T08:22:59.811Z,18.97
2024-04-30T08:25:26.907Z,19.02
2024-04-30T08:27:54.010Z,19.16
2024-04-30T08:30:21.072Z,19.17
2024-04-30T08:32:48.678Z,19.19
2024-04-30T08:35:18.413Z,19.08
2024-04-30T08:37:51.871Z,19.22
2024-04-30T08:40:22.624Z,19.29
2024-04-30T08:42:52.601Z,19.21
2024-04-30T08:45:23.116Z,19.24
2024-04-30T08:47:52.136Z,19.41
2024-04-30T08:50:27.046Z,19.23
2024-04-30T08:52:55.871Z,19.28
2024-04-30T08:55:23.718Z,19.06
2024-04-30T08:57:50.869Z,19.10
2024-04-30T09:00:18.195Z,19.15
2024-04-30T09:02:52.985Z,18.99
2024-04-30T09:05:26.476Z,19.29
2024-04-30T09:07:53.744Z,19.08
2024-04-30T09:10:21.041Z,19.15
2024-04-30T09:12:48.116Z,18.96
2024-04-30T09:15:18.389Z,18.91
2024-04-30T09:17:45.384Z,18.88
2024-04-30T09:20:12.268Z,18.84
2024-04-30T09:22:51.604Z,19.13
2024-04-30T09:25:19.702Z,19.04
2024-04-30T09:27:46.681Z,19.16
2024-04-30T09:30:17.021Z,19.12
2024-04-30T09:32:43.815Z,18.97
2024-04-30T09:35:21.083Z,19.16
2024-04-30T09:37:55.319Z,19.33
2024-04-30T09:40:25.277Z,19.50
2024-04-30T09:42:54.138Z,19.52
2024-04-30T09:45:22.072Z,19.67
2024-04-30T09:47:49.566Z,19.89
2024-04-30T09:50:17.367Z,19.94
2024-04-30T09:52:45.759Z,20.15
2024-04-30T09:55:15.945Z,20.19
2024-04-30T09:57:44.005Z,20.24
2024-04-30T10:00:12.068Z,20.18
2024-04-30T10:02:44.637Z,20.13
2024-04-30T10:05:17.148Z,20.35
2024-04-30T10:07:46.091Z,20.57
2024-04-30T10:10:26.631Z,20.57
2024-04-30T10:12:53.404Z,20.61
2024-04-30T10:15:20.506Z,20.73
2024-04-30T10:17:47.672Z,20.88
2024-04-30T10:20:14.788Z,20.88
2024-04-30T10:22:41.955Z,20.28
2024-04-30T10:25:20.607Z,20.55
2024-04-30T10:27:51.107Z,20.39
2024-04-30T10:30:25.098Z,20.46
2024-04-30T10:32:52.346Z,20.58
2024-04-30T10:35:19.515Z,20.56
2024-04-30T10:37:47.496Z,20.87
2024-04-30T10:40:15.407Z,21.06
2024-04-30T10:42:43.327Z,20.59
2024-04-30T10:45:21.871Z,20.93
2024-04-30T10:47:49.025Z,21.12
2024-04-30T10:50:19.395Z,21.10
2024-04-30T10:52:47.547Z,21.13
2024-04-30T10:55:17.715Z,20.86
2024-04-30T10:57:44.860Z,20.80
2024-04-30T11:00:14.858Z,21.01
2024-04-30T11:02:41.920Z,21.06
2024-04-30T11:05:13.519Z,20.92
2024-04-30T11:07:40.796Z,20.89
2024-04-30T11:10:08.596Z,20.97
2024-04-30T11:12:35.730Z,20.95
2024-04-30T11:15:02.970Z,20.86
2024-04-30T11:17:32.983Z,20.70
2024-04-30T11:20:00.228Z,20.84
2024-04-30T11:22:27.431Z,21.33
2024-04-30T11:24:54.644Z,21.63
2024-04-30T11:27:21.714Z,21.78
2024-04-30T11:29:48.956Z,21.91
2024-04-30T11:32:16.174Z,21.98
2024-04-30T11:34:46.015Z,22.09
2024-04-30T11:37:13.210Z,22.13
2024-04-30T11:39:40.385Z,22.23
2024-04-30T11:44:39.588Z,22.26
2024-04-30T11:47:07.017Z,21.89
2024-04-30T11:49:34.966Z,21.72
2024-04-30T11:52:05.091Z,21.94
2024-04-30T11:54:32.286Z,22.15
2024-04-30T11:56:59.594Z,22.37
2024-04-30T11:59:26.727Z,22.19
2024-04-30T12:01:53.874Z,22.18
2024-04-30T12:04:21.063Z,22.40
2024-04-30T12:06:48.128Z,22.57
2024-04-30T12:09:17.867Z,22.66
2024-04-30T12:11:44.999Z,22.53
2024-04-30T12:16:39.726Z,22.54
2024-04-30T12:19:09.116Z,22.58
2024-04-30T12:21:36.180Z,22.79
2024-04-30T12:24:03.375Z,22.95
2024-04-30T12:26:36.598Z,22.64
2024-04-30T12:29:03.839Z,22.47
2024-04-30T12:31:31.016Z,22.53
2024-04-30T12:33:58.129Z,22.71
2024-04-30T12:36:25.402Z,22.74
2024-04-30T12:38:52.864Z,23.06
2024-04-30T12:41:20.120Z,23.14
2024-04-30T12:43:49.544Z,23.33
2024-04-30T12:46:16.450Z,23.49
2024-04-30T12:48:43.404Z,23.52
2024-04-30T12:51:10.259Z,23.71
2024-04-30T12:53:38.037Z,23.52
2024-04-30T12:56:05.307Z,23.47
2024-04-30T12:58:32.138Z,23.52
2024-04-30T13:01:01.555Z,23.45
2024-04-30T13:03:28.324Z,23.09
2024-04-30T13:05:54.995Z,22.68
2024-04-30T13:08:21.747Z,22.60
2024-04-30T13:11:06.947Z,22.61
2024-04-30T13:13:35.190Z,22.76
2024-04-30T13:16:02.381Z,22.60
2024-04-30T13:18:31.137Z,22.86
2024-04-30T13:20:58.467Z,22.94
2024-04-30T13:23:25.893Z,22.98
2024-04-30T13:25:53.052Z,22.95
2024-04-30T13:28:23.053Z,22.93
2024-04-30T13:30:50.528Z,22.60
2024-04-30T13:33:17.782Z,22.56
2024-04-30T13:35:44.949Z,22.44
2024-04-30T13:38:12.181Z,22.17
2024-04-30T13:40:39.267Z,22.60
2024-04-30T13:43:06.498Z,22.80
2024-04-30T13:45:36.215Z,22.70
2024-04-30T13:48:03.759Z,22.56
2024-04-30T13:50:30.912Z,22.13
2024-04-30T13:52:58.025Z,22.29
2024-04-30T13:55:25.139Z,22.45
2024-04-30T13:57:52.304Z,22.66
2024-04-30T14:00:19.490Z,22.67
2024-04-30T14:02:49.222Z,22.80
2024-04-30T14:05:16.551Z,22.68
2024-04-30T14:07:44.560Z,22.46
2024-04-30T14:10:12.001Z,22.26
2024-04-30T14:12:39.115Z,22.35
2024-04-30T14:15:06.564Z,22.31
2024-04-30T14:17:33.771Z,22.71
2024-04-30T14:20:03.754Z,22.89
2024-04-30T14:22:31.110Z,23.04
2024-04-30T14:24:58.412Z,22.92
2024-04-30T14:27:25.455Z,22.91
2024-04-30T14:29:52.513Z,22.97
2024-04-30T14:32:19.576Z,22.77
2024-04-30T14:34:46.746Z,22.27
2024-04-30T14:37:16.457Z,23.00
2024-04-30T14:39:43.606Z,23.22
2024-04-30T14:42:10.671Z,23.26
2024-04-30T14:44:37.778Z,23.47
2024-04-30T14:47:05.437Z,23.53
2024-04-30T14:49:32.582Z,23.62
2024-04-30T14:51:59.638Z,23.58
2024-04-30T14:54:29.335Z,23.42
2024-04-30T14:56:56.421Z,23.01
2024-04-30T14:59:23.575Z,23.41
2024-04-30T15:01:50.899Z,23.20
2024-04-30T15:04:18.214Z,23.35
2024-04-30T15:06:45.397Z,23.34
2024-04-30T15:09:12.749Z,23.54
2024-04-30T15:11:42.613Z,23.35
2024-04-30T15:14:09.720Z,23.49
2024-04-30T15:16:41.501Z,23.55
2024-04-30T15:19:09.227Z,23.79
2024-04-30T15:21:36.330Z,23.73
2024-04-30T15:24:03.557Z,23.67
2024-04-30T15:26:32.237Z,23.64
2024-04-30T15:29:02.411Z,23.52
2024-04-30T15:31:29.586Z,23.19
2024-04-30T15:33:56.734Z,23.43
2024-04-30T15:36:23.824Z,23.81
2024-04-30T15:38:50.893Z,24.21
2024-04-30T15:41:21.050Z,24.47
2024-04-30T15:43:48.264Z,24.72
2024-04-30T15:46:17.995Z,24.97
2024-04-30T15:48:45.215Z,24.89
2024-04-30T15:51:12.431Z,24.79
2024-04-30T15:53:39.537Z,24.87
2024-04-30T15:56:16.359Z,24.72
2024-04-30T15:58:46.589Z,24.73
2024-04-30T16:01:14.050Z,24.79
2024-04-30T16:03:43.984Z,24.80
2024-04-30T16:06:11.583Z,24.70
2024-04-30T16:08:38.720Z,24.59
2024-04-30T16:11:10.440Z,24.40
2024-04-30T16:13:39.644Z,22.82
2024-04-30T16:16:13.152Z,23.27
2024-04-30T16:18:48.424Z,23.62
2024-04-30T16:21:16.083Z,23.64
2024-04-30T16:23:44.167Z,23.84
2024-04-30T16:26:11.666Z,23.96
2024-04-30T16:28:42.560Z,23.97
2024-04-30T16:31:09.490Z,24.29
2024-04-30T16:33:37.349Z,24.64
2024-04-30T16:36:08.307Z,24.72
2024-04-30T16:38:37.747Z,24.48
2024-04-30T16:41:04.730Z,24.69
2024-04-30T16:43:31.472Z,24.81
2024-04-30T16:45:58.237Z,24.94
2024-04-30T16:48:25.064Z,24.93
2024-04-30T16:50:51.989Z,24.92
2024-04-30T16:53:21.393Z,24.57
2024-04-30T16:55:48.122Z,24.66
2024-04-30T16:58:14.856Z,24.58
2024-04-30T17:00:41.650Z,24.46
2024-04-30T17:03:08.497Z,24.42
2024-04-30T17:05:35.282Z,24.29
2024-04-30T17:08:02.109Z,24.28
2024-04-30T17:10:31.463Z,24.09
2024-04-30T17:12:58.357Z,24.06
2024-04-30T17:15:25.159Z,24.12
2024-04-30T17:17:51.841Z,24.13
2024-04-30T17:20:18.546Z,24.16
2024-04-30T17:22:45.296Z,24.14
2024-04-30T17:25:12.133Z,24.24
2024-04-30T17:27:42.272Z,24.22
2024-04-30T17:30:10.227Z,24.18
2024-04-30T17:32:40.290Z,24.25
2024-04-30T17:35:07.637Z,24.21
2024-04-30T17:37:34.751Z,24.10
2024-04-30T17:40:01.892Z,23.91
2024-04-30T17:42:29.051Z,24.00
2024-04-30T17:44:58.778Z,23.98
2024-04-30T17:47:25.963Z,23.89
2024-04-30T17:49:53.074Z,23.74
2024-04-30T17:52:20.193Z,23.72
2024-04-30T17:54:47.383Z,23.54
2024-04-30T17:57:14.450Z,23.74
2024-04-30T17:59:44.114Z,23.76
2024-04-30T18:02:13.871Z,23.75
2024-04-30T18:04:41.959Z,23.37
2024-04-30T18:07:09.120Z,22.91
2024-04-30T18:09:36.323Z,22.94
2024-04-30T18:12:03.943Z,22.76
2024-04-30T18:14:31.054Z,22.69
2024-04-30T18:16:59.482Z,22.89
2024-04-30T18:19:30.638Z,22.93
2024-04-30T18:21:57.808Z,22.95
2024-04-30T18:24:25.050Z,22.77
2024-04-30T18:26:52.142Z,22.17
2024-04-30T18:29:19.275Z,21.68
2024-04-30T18:31:53.087Z,20.90
2024-04-30T18:34:21.212Z,20.71
2024-04-30T18:36:51.289Z,20.74
2024-04-30T18:39:18.599Z,20.65
2024-04-30T18:41:45.758Z,20.86
2024-04-30T18:44:12.912Z,21.29
2024-04-30T18:46:40.244Z,21.47
2024-04-30T18:49:07.535Z,21.50
2024-04-30T18:51:41.097Z,21.34
2024-04-30T18:54:11.512Z,21.38
2024-04-30T18:56:39.352Z,21.32
2024-04-30T18:59:06.144Z,21.49
2024-04-30T19:01:32.928Z,21.58
2024-04-30T19:03:59.706Z,21.60
2024-04-30T19:06:26.434Z,21.46
2024-04-30T19:08:53.157Z,21.54
2024-04-30T19:11:22.587Z,21.50
2024-04-30T19:13:49.534Z,21.49
2024-04-30T19:16:16.372Z,20.67
2024-04-30T19:18:43.227Z,20.77
2024-04-30T19:21:10.150Z,20.93
2024-04-30T19:23:36.874Z,20.89
2024-04-30T19:26:03.929Z,21.07
2024-04-30T19:28:33.269Z,20.55
2024-04-30T19:30:59.988Z,20.89
2024-04-30T19:33:26.989Z,20.76
2024-04-30T19:35:53.937Z,20.78
2024-04-30T19:38:20.718Z,20.81
2024-04-30T19:40:47.455Z,20.84
2024-04-30T19:43:14.656Z,20.81
2024-04-30T19:45:44.174Z,20.27
2024-04-30T19:48:15.531Z,20.26
2024-04-30T19:50:45.003Z,20.33
2024-04-30T19:53:11.754Z,20.58
2024-04-30T19:55:38.489Z,20.27
2024-04-30T19:58:05.533Z,20.21
2024-04-30T20:00:32.646Z,20.36
2024-04-30T20:03:02.632Z,20.47
2024-04-30T20:05:29.800Z,20.43
2024-04-30T20:07:56.916Z,20.42
2024-04-30T20:10:24.123Z,20.39
2024-04-30T20:12:51.398Z,20.45
2024-04-30T20:15:18.722Z,20.43
2024-04-30T20:17:45.961Z,20.37
2024-04-30T20:20:15.757Z,20.35
2024-04-30T20:22:45.579Z,20.36
2024-04-30T20:25:13.937Z,19.94
2024-04-30T20:27:41.617Z,20.06
2024-04-30T20:30:11.600Z,20.02
2024-04-30T20:32:40.932Z,20.11
2024-04-30T20:35:08.562Z,20.04
2024-04-30T20:37:38.211Z,20.06
2024-04-30T20:40:06.346Z,19.92
2024-04-30T20:42:33.463Z,20.10
2024-04-30T20:45:00.539Z,20.05
2024-04-30T20:47:28.072Z,20.00
2024-04-30T20:49:55.197Z,19.99
2024-04-30T20:52:22.236Z,20.07
2024-04-30T20:54:52.016Z,19.94
2024-04-30T20:57:19.251Z,19.95
2024-04-30T20:59:46.366Z,19.99
2024-04-30T21:02:13.460Z,19.99
2024-04-30T21:04:40.518Z,19.80
2024-04-30T21:07:07.663Z,19.86
2024-04-30T21:09:34.808Z,19.83
2024-04-30T21:12:05.296Z,19.81
2024-04-30T21:14:32.496Z,19.48
2024-04-30T21:17:01.012Z,19.54
2024-04-30T21:19:29.405Z,19.64
2024-04-30T21:21:56.565Z,19.61
2024-04-30T21:24:23.861Z,19.55
2024-04-30T21:26:50.971Z,19.54
2024-04-30T21:29:20.653Z,19.56
2024-04-30T21:31:47.709Z,19.59
2024-04-30T21:34:14.913Z,19.53
2024-04-30T21:36:46.004Z,19.44
2024-04-30T21:39:13.980Z,19.17
2024-04-30T21:41:41.051Z,19.34
2024-04-30T21:44:08.136Z,18.98
2024-04-30T21:46:42.233Z,19.00
2024-04-30T21:49:09.517Z,19.14
2024-04-30T21:51:36.751Z,19.13
2024-04-30T21:54:03.979Z,18.99
2024-04-30T21:56:31.116Z,18.90
2024-04-30T21:58:58.531Z,19.05
2024-04-30T22:01:25.621Z,19.11
2024-04-30T22:03:55.484Z,19.08
2024-04-30T22:06:22.694Z,18.99
2024-04-30T22:08:49.827Z,19.01
2024-04-30T22:11:16.989Z,18.49
2024-04-30T22:13:44.194Z,18.69
2024-04-30T22:16:11.274Z,18.84
2024-04-30T22:18:38.518Z,18.83
2024-04-30T22:21:08.433Z,18.49
2024-04-30T22:23:35.465Z,18.56
2024-04-30T22:26:02.823Z,18.65
2024-04-30T22:28:29.959Z,18.58
2024-04-30T22:30:57.197Z,18.73
2024-04-30T22:33:24.446Z,18.62
2024-04-30T22:35:51.601Z,18.62
2024-04-30T22:38:21.264Z,18.62
2024-04-30T22:40:48.344Z,18.47
2024-04-30T22:43:16.021Z,18.52
2024-04-30T22:45:43.239Z,18.38
2024-04-30T22:48:10.405Z,18.47
2024-04-30T22:50:37.510Z,18.43
2024-04-30T22:53:05.211Z,18.40
2024-04-30T22:55:34.913Z,18.36
2024-04-30T22:58:02.075Z,18.43
2024-04-30T23:00:29.286Z,18.24
2024-04-30T23:02:56.423Z,18.40
2024-04-30T23:05:23.666Z,18.36
2024-04-30T23:07:50.740Z,18.38
2024-04-30T23:10:17.909Z,18.34
2024-04-30T23:12:47.720Z,18.25
2024-04-30T23:15:14.947Z,18.23
2024-04-30T23:17:42.165Z,18.21
2024-04-30T23:20:09.716Z,18.04
2024-04-30T23:22:37.192Z,18.18
2024-04-30T23:25:04.921Z,18.02
2024-04-30T23:27:32.265Z,18.05
2024-04-30T23:30:02.313Z,18.09
2024-04-30T23:32:29.416Z,18.01
2024-04-30T23:34:56.491Z,17.90
2024-04-30T23:37:23.577Z,18.03
2024-04-30T23:39:50.674Z,18.06
2024-04-30T23:42:22.975Z,17.95
2024-04-30T23:44:50.814Z,18.01
2024-04-30T23:47:20.612Z,17.96
2024-04-30T23:49:47.701Z,17.91
2024-04-30T23:52:14.738Z,17.96
2024-04-30T23:54:43.225Z,17.96
2024-04-30T23:57:10.397Z,17.65
2024-04-30T23:59:37.522Z,17.84
